sensor_id;sensor_type;location;lat;lon;timestamp;temperature;humidity
37446;DHT22;23307;51.136;14.942;2022-12-18T00:01:04;-1.60;99.90
37446;DHT22;23307;51.136;14.942;2022-12-18T00:03:33;-1.60;99.90
37446;DHT22;23307;51.136;14.942;2022-12-18T00:05:59;-1.70;99.90
37446;DHT22;23307;51.136;14.942;2022-12-18T00:08:24;-1.70;99.90
37446;DHT22;23307;51.136;14.942;2022-12-18T00:10:50;-1.70;99.90
37446;DHT22;23307;51.136;14.942;2022-12-18T00:13:15;-1.70;99.90
37446;DHT22;23307;51.136;14.942;2022-12-18T00:15:41;-1.70;99.90
37446;DHT22;23307;51.136;14.942;2022-12-18T00:18:07;-1.60;99.90
37446;DHT22;23307;51.136;14.942;2022-12-18T00:20:39;-1.60;99.90
37446;DHT22;23307;51.136;14.942;2022-12-18T00:23:06;-1.60;99.90
37446;DHT22;23307;51.136;14.942;2022-12-18T00:25:36;-1.60;99.90
37446;DHT22;23307;51.136;14.942;2022-12-18T00:28:03;-1.60;99.90
37446;DHT22;23307;51.136;14.942;2022-12-18T00:30:28;-1.60;99.90
37446;DHT22;23307;51.136;14.942;2022-12-18T00:32:54;-1.60;99.90
37446;DHT22;23307;51.136;14.942;2022-12-18T00:35:19;-1.70;99.90
37446;DHT22;23307;51.136;14.942;2022-12-18T00:37:45;-1.70;99.90
37446;DHT22;23307;51.136;14.942;2022-12-18T00:40:11;-1.80;99.90
37446;DHT22;23307;51.136;14.942;2022-12-18T00:42:37;-1.90;99.90
37446;DHT22;23307;51.136;14.942;2022-12-18T00:45:25;-1.80;99.90
37446;DHT22;23307;51.136;14.942;2022-12-18T00:47:51;-1.80;99.90
37446;DHT22;23307;51.136;14.942;2022-12-18T00:50:17;-1.80;99.90
37446;DHT22;23307;51.136;14.942;2022-12-18T00:52:42;-1.80;99.90
37446;DHT22;23307;51.136;14.942;2022-12-18T00:55:09;-1.80;99.90
37446;DHT22;23307;51.136;14.942;2022-12-18T00:57:35;-1.70;99.90
37446;DHT22;23307;51.136;14.942;2022-12-18T01:00:00;-1.70;99.90
37446;DHT22;23307;51.136;14.942;2022-12-18T01:02:26;-1.60;99.90
37446;DHT22;23307;51.136;14.942;2022-12-18T01:04:51;-1.60;99.90
37446;DHT22;23307;51.136;14.942;2022-12-18T01:07:17;-1.70;99.90
37446;DHT22;23307;51.136;14.942;2022-12-18T01:09:43;-1.80;99.90
37446;DHT22;23307;51.136;14.942;2022-12-18T01:12:08;-1.80;99.90
37446;DHT22;23307;51.136;14.942;2022-12-18T01:14:34;-1.90;99.90
37446;DHT22;23307;51.136;14.942;2022-12-18T01:16:59;-1.80;99.90
37446;DHT22;23307;51.136;14.942;2022-12-18T01:19:25;-1.70;99.90
37446;DHT22;23307;51.136;14.942;2022-12-18T01:21:50;-1.70;99.90
37446;DHT22;23307;51.136;14.942;2022-12-18T01:24:16;-1.70;99.90
37446;DHT22;23307;51.136;14.942;2022-12-18T01:26:41;-1.80;99.90
37446;DHT22;23307;51.136;14.942;2022-12-18T01:29:07;-1.90;99.90
37446;DHT22;23307;51.136;14.942;2022-12-18T01:31:33;-2.00;99.90
37446;DHT22;23307;51.136;14.942;2022-12-18T01:34:03;-2.10;99.90
37446;DHT22;23307;51.136;14.942;2022-12-18T01:36:32;-2.00;99.90
37446;DHT22;23307;51.136;14.942;2022-12-18T01:39:00;-2.00;99.90
37446;DHT22;23307;51.136;14.942;2022-12-18T01:41:28;-2.00;99.90
37446;DHT22;23307;51.136;14.942;2022-12-18T01:47:39;-1.90;99.90
37446;DHT22;23307;51.136;14.942;2022-12-18T01:52:35;-1.80;99.90
37446;DHT22;23307;51.136;14.942;2022-12-18T01:55:04;-1.80;99.90
37446;DHT22;23307;51.136;14.942;2022-12-18T01:57:30;-1.70;99.90
37446;DHT22;23307;51.136;14.942;2022-12-18T02:00:00;-1.70;99.90
37446;DHT22;23307;51.136;14.942;2022-12-18T02:02:27;-1.70;99.90
37446;DHT22;23307;51.136;14.942;2022-12-18T02:04:53;-1.70;99.90
37446;DHT22;23307;51.136;14.942;2022-12-18T02:07:39;-1.70;99.90
37446;DHT22;23307;51.136;14.942;2022-12-18T02:13:04;-1.90;99.90
37446;DHT22;23307;51.136;14.942;2022-12-18T02:15:40;-1.90;99.90
37446;DHT22;23307;51.136;14.942;2022-12-18T02:18:12;-1.90;99.90
37446;DHT22;23307;51.136;14.942;2022-12-18T02:29:16;-2.00;99.90
37446;DHT22;23307;51.136;14.942;2022-12-18T02:31:47;-2.00;99.90
37446;DHT22;23307;51.136;14.942;2022-12-18T02:34:15;-2.10;99.90
37446;DHT22;23307;51.136;14.942;2022-12-18T02:36:42;-2.10;99.90
37446;DHT22;23307;51.136;14.942;2022-12-18T02:39:11;-2.10;99.90
37446;DHT22;23307;51.136;14.942;2022-12-18T02:41:37;-2.10;99.90
37446;DHT22;23307;51.136;14.942;2022-12-18T02:44:08;-2.10;99.90
37446;DHT22;23307;51.136;14.942;2022-12-18T02:46:38;-2.20;99.90
37446;DHT22;23307;51.136;14.942;2022-12-18T02:49:21;-2.20;99.90
37446;DHT22;23307;51.136;14.942;2022-12-18T02:55:01;-2.10;99.90
37446;DHT22;23307;51.136;14.942;2022-12-18T02:57:54;-2.10;99.90
37446;DHT22;23307;51.136;14.942;2022-12-18T03:00:57;-2.20;99.90
37446;DHT22;23307;51.136;14.942;2022-12-18T03:03:22;-2.20;99.90
37446;DHT22;23307;51.136;14.942;2022-12-18T03:06:02;-2.10;99.90
37446;DHT22;23307;51.136;14.942;2022-12-18T03:08:33;-2.10;99.90
37446;DHT22;23307;51.136;14.942;2022-12-18T03:11:07;-2.00;99.90
37446;DHT22;23307;51.136;14.942;2022-12-18T03:13:46;-2.00;99.90
37446;DHT22;23307;51.136;14.942;2022-12-18T03:16:17;-1.90;99.90
37446;DHT22;23307;51.136;14.942;2022-12-18T03:18:49;-2.00;99.90
37446;DHT22;23307;51.136;14.942;2022-12-18T03:21:21;-1.90;99.90
37446;DHT22;23307;51.136;14.942;2022-12-18T03:23:50;-1.90;99.90
37446;DHT22;23307;51.136;14.942;2022-12-18T03:26:22;-2.00;99.90
37446;DHT22;23307;51.136;14.942;2022-12-18T03:28:53;-2.00;99.90
37446;DHT22;23307;51.136;14.942;2022-12-18T03:31:23;-2.00;99.90
37446;DHT22;23307;51.136;14.942;2022-12-18T03:33:57;-2.00;99.90
37446;DHT22;23307;51.136;14.942;2022-12-18T03:36:24;-2.10;99.90
37446;DHT22;23307;51.136;14.942;2022-12-18T03:38:50;-2.10;99.90
37446;DHT22;23307;51.136;14.942;2022-12-18T03:46:31;-2.20;99.90
37446;DHT22;23307;51.136;14.942;2022-12-18T03:49:25;-2.20;99.90
37446;DHT22;23307;51.136;14.942;2022-12-18T03:52:02;-2.20;99.90
37446;DHT22;23307;51.136;14.942;2022-12-18T03:54:29;-2.20;99.90
37446;DHT22;23307;51.136;14.942;2022-12-18T03:57:15;-2.20;99.90
37446;DHT22;23307;51.136;14.942;2022-12-18T03:59:44;-2.20;99.90
37446;DHT22;23307;51.136;14.942;2022-12-18T04:02:11;-2.20;99.90
37446;DHT22;23307;51.136;14.942;2022-12-18T04:04:37;-2.20;99.90
37446;DHT22;23307;51.136;14.942;2022-12-18T04:07:04;-2.20;99.90
37446;DHT22;23307;51.136;14.942;2022-12-18T04:09:32;-2.20;99.90
37446;DHT22;23307;51.136;14.942;2022-12-18T04:11:58;-2.20;99.90
37446;DHT22;23307;51.136;14.942;2022-12-18T04:14:23;-2.20;99.90
37446;DHT22;23307;51.136;14.942;2022-12-18T04:16:49;-2.20;99.90
37446;DHT22;23307;51.136;14.942;2022-12-18T04:19:14;-2.20;99.90
37446;DHT22;23307;51.136;14.942;2022-12-18T04:21:40;-2.20;99.90
37446;DHT22;23307;51.136;14.942;2022-12-18T04:24:06;-2.20;99.90
37446;DHT22;23307;51.136;14.942;2022-12-18T04:26:31;-2.20;99.90
37446;DHT22;23307;51.136;14.942;2022-12-18T04:28:57;-2.20;99.90
37446;DHT22;23307;51.136;14.942;2022-12-18T04:31:22;-2.10;99.90
37446;DHT22;23307;51.136;14.942;2022-12-18T04:33:48;-2.10;99.90
37446;DHT22;23307;51.136;14.942;2022-12-18T04:36:13;-2.10;99.90
37446;DHT22;23307;51.136;14.942;2022-12-18T04:38:39;-2.20;99.90
37446;DHT22;23307;51.136;14.942;2022-12-18T04:41:04;-2.20;99.90
37446;DHT22;23307;51.136;14.942;2022-12-18T04:43:30;-2.20;99.90
37446;DHT22;23307;51.136;14.942;2022-12-18T04:46:06;-2.20;99.90
37446;DHT22;23307;51.136;14.942;2022-12-18T04:48:32;-2.20;99.90
37446;DHT22;23307;51.136;14.942;2022-12-18T04:50:58;-2.20;99.90
37446;DHT22;23307;51.136;14.942;2022-12-18T04:53:23;-2.30;99.90
37446;DHT22;23307;51.136;14.942;2022-12-18T04:55:49;-2.30;99.90
37446;DHT22;23307;51.136;14.942;2022-12-18T04:58:15;-2.30;99.90
37446;DHT22;23307;51.136;14.942;2022-12-18T05:00:40;-2.40;99.90
37446;DHT22;23307;51.136;14.942;2022-12-18T05:03:06;-2.40;99.90
37446;DHT22;23307;51.136;14.942;2022-12-18T05:05:31;-2.40;99.90
37446;DHT22;23307;51.136;14.942;2022-12-18T05:07:59;-2.40;99.90
37446;DHT22;23307;51.136;14.942;2022-12-18T05:10:25;-2.50;99.90
37446;DHT22;23307;51.136;14.942;2022-12-18T05:12:50;-2.60;99.90
37446;DHT22;23307;51.136;14.942;2022-12-18T05:15:34;-2.60;99.90
37446;DHT22;23307;51.136;14.942;2022-12-18T05:18:00;-2.70;99.90
37446;DHT22;23307;51.136;14.942;2022-12-18T05:20:27;-2.80;99.90
37446;DHT22;23307;51.136;14.942;2022-12-18T05:22:53;-2.80;99.90
37446;DHT22;23307;51.136;14.942;2022-12-18T05:25:19;-2.90;99.90
37446;DHT22;23307;51.136;14.942;2022-12-18T05:27:45;-3.00;99.90
37446;DHT22;23307;51.136;14.942;2022-12-18T05:30:11;-3.10;99.90
37446;DHT22;23307;51.136;14.942;2022-12-18T05:32:37;-3.10;99.90
37446;DHT22;23307;51.136;14.942;2022-12-18T05:35:04;-3.10;99.90
37446;DHT22;23307;51.136;14.942;2022-12-18T05:37:30;-3.10;99.90
37446;DHT22;23307;51.136;14.942;2022-12-18T05:39:56;-3.10;99.90
37446;DHT22;23307;51.136;14.942;2022-12-18T05:42:21;-3.20;99.90
37446;DHT22;23307;51.136;14.942;2022-12-18T05:44:47;-3.20;99.90
37446;DHT22;23307;51.136;14.942;2022-12-18T05:47:12;-3.20;99.90
37446;DHT22;23307;51.136;14.942;2022-12-18T05:49:38;-3.20;99.90
37446;DHT22;23307;51.136;14.942;2022-12-18T05:52:04;-3.10;99.90
37446;DHT22;23307;51.136;14.942;2022-12-18T05:54:29;-3.10;99.90
37446;DHT22;23307;51.136;14.942;2022-12-18T05:56:56;-3.20;99.90
37446;DHT22;23307;51.136;14.942;2022-12-18T05:59:22;-3.20;99.90
37446;DHT22;23307;51.136;14.942;2022-12-18T06:01:47;-3.20;99.90
37446;DHT22;23307;51.136;14.942;2022-12-18T06:04:13;-3.20;99.90
37446;DHT22;23307;51.136;14.942;2022-12-18T06:06:39;-3.20;99.90
37446;DHT22;23307;51.136;14.942;2022-12-18T06:09:04;-3.20;99.90
37446;DHT22;23307;51.136;14.942;2022-12-18T06:11:36;-3.20;99.90
37446;DHT22;23307;51.136;14.942;2022-12-18T06:14:03;-3.20;99.90
37446;DHT22;23307;51.136;14.942;2022-12-18T06:16:29;-3.30;99.90
37446;DHT22;23307;51.136;14.942;2022-12-18T06:18:59;-3.30;99.90
37446;DHT22;23307;51.136;14.942;2022-12-18T06:21:25;-3.20;99.90
37446;DHT22;23307;51.136;14.942;2022-12-18T06:23:51;-3.30;99.90
37446;DHT22;23307;51.136;14.942;2022-12-18T06:26:16;-3.30;99.90
37446;DHT22;23307;51.136;14.942;2022-12-18T06:28:42;-3.30;99.90
37446;DHT22;23307;51.136;14.942;2022-12-18T06:31:08;-3.30;99.90
37446;DHT22;23307;51.136;14.942;2022-12-18T06:33:35;-3.30;99.90
37446;DHT22;23307;51.136;14.942;2022-12-18T06:36:03;-3.30;99.90
37446;DHT22;23307;51.136;14.942;2022-12-18T06:38:29;-3.30;99.90
37446;DHT22;23307;51.136;14.942;2022-12-18T06:40:54;-3.30;99.90
37446;DHT22;23307;51.136;14.942;2022-12-18T06:43:20;-3.30;99.90
37446;DHT22;23307;51.136;14.942;2022-12-18T06:45:45;-3.30;99.90
37446;DHT22;23307;51.136;14.942;2022-12-18T06:48:14;-3.30;99.90
37446;DHT22;23307;51.136;14.942;2022-12-18T06:50:42;-3.30;99.90
37446;DHT22;23307;51.136;14.942;2022-12-18T06:53:08;-3.40;99.90
37446;DHT22;23307;51.136;14.942;2022-12-18T06:55:33;-3.30;99.90
37446;DHT22;23307;51.136;14.942;2022-12-18T06:57:59;-3.30;99.90
37446;DHT22;23307;51.136;14.942;2022-12-18T07:00:24;-3.30;99.90
37446;DHT22;23307;51.136;14.942;2022-12-18T07:02:50;-3.30;99.90
37446;DHT22;23307;51.136;14.942;2022-12-18T07:05:15;-3.30;99.90
37446;DHT22;23307;51.136;14.942;2022-12-18T07:07:41;-3.30;99.90
37446;DHT22;23307;51.136;14.942;2022-12-18T07:10:06;-3.20;99.90
37446;DHT22;23307;51.136;14.942;2022-12-18T07:12:32;-3.20;99.90
37446;DHT22;23307;51.136;14.942;2022-12-18T07:14:57;-3.20;99.90
37446;DHT22;23307;51.136;14.942;2022-12-18T07:17:23;-3.30;99.90
37446;DHT22;23307;51.136;14.942;2022-12-18T07:19:49;-3.30;99.90
37446;DHT22;23307;51.136;14.942;2022-12-18T07:22:14;-3.30;99.90
37446;DHT22;23307;51.136;14.942;2022-12-18T07:24:40;-3.30;99.90
37446;DHT22;23307;51.136;14.942;2022-12-18T07:27:05;-3.40;99.90
37446;DHT22;23307;51.136;14.942;2022-12-18T07:29:31;-3.40;99.90
37446;DHT22;23307;51.136;14.942;2022-12-18T07:31:56;-3.40;99.90
37446;DHT22;23307;51.136;14.942;2022-12-18T07:34:22;-3.40;99.90
37446;DHT22;23307;51.136;14.942;2022-12-18T07:36:47;-3.40;99.90
37446;DHT22;23307;51.136;14.942;2022-12-18T07:39:13;-3.30;99.90
37446;DHT22;23307;51.136;14.942;2022-12-18T07:41:38;-3.30;99.90
37446;DHT22;23307;51.136;14.942;2022-12-18T07:44:09;-3.30;99.90
37446;DHT22;23307;51.136;14.942;2022-12-18T07:46:35;-3.30;99.90
37446;DHT22;23307;51.136;14.942;2022-12-18T07:49:01;-3.30;99.90
37446;DHT22;23307;51.136;14.942;2022-12-18T07:51:26;-3.30;99.90
37446;DHT22;23307;51.136;14.942;2022-12-18T07:53:52;-3.20;99.90
37446;DHT22;23307;51.136;14.942;2022-12-18T07:56:17;-3.20;99.90
37446;DHT22;23307;51.136;14.942;2022-12-18T07:58:43;-3.20;99.90
37446;DHT22;23307;51.136;14.942;2022-12-18T08:01:11;-3.20;99.90
37446;DHT22;23307;51.136;14.942;2022-12-18T08:03:37;-3.20;99.90
37446;DHT22;23307;51.136;14.942;2022-12-18T08:06:05;-3.10;99.90
37446;DHT22;23307;51.136;14.942;2022-12-18T08:08:32;-3.10;99.90
37446;DHT22;23307;51.136;14.942;2022-12-18T08:10:58;-3.10;99.90
37446;DHT22;23307;51.136;14.942;2022-12-18T08:13:25;-3.00;99.90
37446;DHT22;23307;51.136;14.942;2022-12-18T08:16:15;-3.10;99.90
37446;DHT22;23307;51.136;14.942;2022-12-18T08:18:40;-3.00;99.90
37446;DHT22;23307;51.136;14.942;2022-12-18T08:21:16;-3.00;99.90
37446;DHT22;23307;51.136;14.942;2022-12-18T08:23:43;-3.00;99.90
37446;DHT22;23307;51.136;14.942;2022-12-18T08:26:11;-3.00;99.90
37446;DHT22;23307;51.136;14.942;2022-12-18T08:28:36;-2.90;99.90
37446;DHT22;23307;51.136;14.942;2022-12-18T08:31:02;-3.00;99.90
37446;DHT22;23307;51.136;14.942;2022-12-18T08:33:28;-3.00;99.90
37446;DHT22;23307;51.136;14.942;2022-12-18T08:35:53;-3.00;99.90
37446;DHT22;23307;51.136;14.942;2022-12-18T08:38:19;-3.00;99.90
37446;DHT22;23307;51.136;14.942;2022-12-18T08:40:44;-3.00;99.90
37446;DHT22;23307;51.136;14.942;2022-12-18T08:43:10;-2.90;99.90
37446;DHT22;23307;51.136;14.942;2022-12-18T08:45:55;-2.90;99.90
37446;DHT22;23307;51.136;14.942;2022-12-18T08:48:21;-2.90;99.90
37446;DHT22;23307;51.136;14.942;2022-12-18T08:50:56;-2.80;99.90
37446;DHT22;23307;51.136;14.942;2022-12-18T08:53:22;-2.80;99.90
37446;DHT22;23307;51.136;14.942;2022-12-18T08:55:47;-2.80;99.90
37446;DHT22;23307;51.136;14.942;2022-12-18T08:58:13;-2.80;99.90
37446;DHT22;23307;51.136;14.942;2022-12-18T09:00:39;-2.80;99.90
37446;DHT22;23307;51.136;14.942;2022-12-18T09:03:04;-2.80;99.90
37446;DHT22;23307;51.136;14.942;2022-12-18T09:05:30;-2.80;99.90
37446;DHT22;23307;51.136;14.942;2022-12-18T09:07:55;-2.80;99.90
37446;DHT22;23307;51.136;14.942;2022-12-18T09:10:21;-2.80;99.90
37446;DHT22;23307;51.136;14.942;2022-12-18T09:12:47;-2.70;99.90
37446;DHT22;23307;51.136;14.942;2022-12-18T09:15:12;-2.70;99.90
37446;DHT22;23307;51.136;14.942;2022-12-18T09:17:38;-2.60;99.90
37446;DHT22;23307;51.136;14.942;2022-12-18T09:20:04;-2.50;99.90
37446;DHT22;23307;51.136;14.942;2022-12-18T09:22:30;-2.50;99.90
37446;DHT22;23307;51.136;14.942;2022-12-18T09:24:56;-2.40;99.90
37446;DHT22;23307;51.136;14.942;2022-12-18T09:27:21;-2.40;99.90
37446;DHT22;23307;51.136;14.942;2022-12-18T09:29:47;-2.30;99.90
37446;DHT22;23307;51.136;14.942;2022-12-18T09:32:12;-2.30;99.90
37446;DHT22;23307;51.136;14.942;2022-12-18T09:34:38;-2.30;99.90
37446;DHT22;23307;51.136;14.942;2022-12-18T09:37:03;-2.30;99.90
37446;DHT22;23307;51.136;14.942;2022-12-18T09:39:29;-2.30;99.90
37446;DHT22;23307;51.136;14.942;2022-12-18T09:41:57;-2.30;99.90
37446;DHT22;23307;51.136;14.942;2022-12-18T09:44:44;-2.20;99.90
37446;DHT22;23307;51.136;14.942;2022-12-18T09:49:56;-2.00;99.90
37446;DHT22;23307;51.136;14.942;2022-12-18T09:52:37;-2.00;99.90
37446;DHT22;23307;51.136;14.942;2022-12-18T09:57:47;-1.80;99.90
37446;DHT22;23307;51.136;14.942;2022-12-18T10:00:24;-1.70;99.90
37446;DHT22;23307;51.136;14.942;2022-12-18T10:02:52;-1.60;99.90
37446;DHT22;23307;51.136;14.942;2022-12-18T10:10:53;-1.20;99.90
37446;DHT22;23307;51.136;14.942;2022-12-18T10:21:17;-1.30;99.90
37446;DHT22;23307;51.136;14.942;2022-12-18T10:26:38;-1.30;99.90
37446;DHT22;23307;51.136;14.942;2022-12-18T10:29:13;-1.20;99.90
37446;DHT22;23307;51.136;14.942;2022-12-18T10:31:38;-1.20;99.90
37446;DHT22;23307;51.136;14.942;2022-12-18T10:34:07;-1.20;99.90
37446;DHT22;23307;51.136;14.942;2022-12-18T10:36:34;-1.20;99.90
37446;DHT22;23307;51.136;14.942;2022-12-18T10:39:19;-1.20;99.90
37446;DHT22;23307;51.136;14.942;2022-12-18T10:41:45;-1.30;99.90
37446;DHT22;23307;51.136;14.942;2022-12-18T10:44:24;-1.30;99.90
37446;DHT22;23307;51.136;14.942;2022-12-18T10:46:54;-1.40;99.90
37446;DHT22;23307;51.136;14.942;2022-12-18T10:49:31;-1.30;99.90
37446;DHT22;23307;51.136;14.942;2022-12-18T10:52:17;-1.20;99.90
37446;DHT22;23307;51.136;14.942;2022-12-18T10:54:55;-1.20;99.90
37446;DHT22;23307;51.136;14.942;2022-12-18T10:57:37;-1.20;99.90
37446;DHT22;23307;51.136;14.942;2022-12-18T11:02:50;-1.30;99.90
37446;DHT22;23307;51.136;14.942;2022-12-18T11:05:33;-1.30;99.90
37446;DHT22;23307;51.136;14.942;2022-12-18T11:08:00;-1.30;99.90
37446;DHT22;23307;51.136;14.942;2022-12-18T11:10:31;-1.20;99.90
37446;DHT22;23307;51.136;14.942;2022-12-18T11:13:27;-1.20;99.90
37446;DHT22;23307;51.136;14.942;2022-12-18T11:15:54;-1.30;99.90
37446;DHT22;23307;51.136;14.942;2022-12-18T11:18:30;-1.40;99.90
37446;DHT22;23307;51.136;14.942;2022-12-18T11:21:07;-1.40;99.90
37446;DHT22;23307;51.136;14.942;2022-12-18T11:23:34;-1.50;99.90
37446;DHT22;23307;51.136;14.942;2022-12-18T11:26:01;-1.50;99.90
37446;DHT22;23307;51.136;14.942;2022-12-18T11:28:43;-1.50;99.90
37446;DHT22;23307;51.136;14.942;2022-12-18T11:31:25;-1.60;99.90
37446;DHT22;23307;51.136;14.942;2022-12-18T11:34:11;-1.50;99.90
37446;DHT22;23307;51.136;14.942;2022-12-18T11:36:42;-1.50;99.90
37446;DHT22;23307;51.136;14.942;2022-12-18T11:39:42;-1.50;99.90
37446;DHT22;23307;51.136;14.942;2022-12-18T11:45:00;-1.10;99.90
37446;DHT22;23307;51.136;14.942;2022-12-18T11:50:21;-1.00;99.90
37446;DHT22;23307;51.136;14.942;2022-12-18T11:52:48;-0.90;99.90
37446;DHT22;23307;51.136;14.942;2022-12-18T11:55:29;-0.80;99.90
37446;DHT22;23307;51.136;14.942;2022-12-18T11:57:59;-0.70;99.90
37446;DHT22;23307;51.136;14.942;2022-12-18T12:00:26;-0.70;99.90
37446;DHT22;23307;51.136;14.942;2022-12-18T12:03:39;-0.60;99.90
37446;DHT22;23307;51.136;14.942;2022-12-18T12:06:35;-0.50;99.90
37446;DHT22;23307;51.136;14.942;2022-12-18T12:17:26;-0.40;99.90
37446;DHT22;23307;51.136;14.942;2022-12-18T12:23:12;-0.50;99.90
37446;DHT22;23307;51.136;14.942;2022-12-18T12:25:55;-0.50;99.90
37446;DHT22;23307;51.136;14.942;2022-12-18T12:31:24;-0.50;99.90
37446;DHT22;23307;51.136;14.942;2022-12-18T12:39:14;-0.50;99.90
37446;DHT22;23307;51.136;14.942;2022-12-18T12:41:42;-0.40;99.90
37446;DHT22;23307;51.136;14.942;2022-12-18T12:44:43;-0.40;99.90
37446;DHT22;23307;51.136;14.942;2022-12-18T12:47:31;-0.40;99.90
37446;DHT22;23307;51.136;14.942;2022-12-18T12:50:01;-0.40;99.90
37446;DHT22;23307;51.136;14.942;2022-12-18T12:52:42;-0.40;99.90
37446;DHT22;23307;51.136;14.942;2022-12-18T12:55:15;-0.40;99.90
37446;DHT22;23307;51.136;14.942;2022-12-18T12:57:45;-0.40;99.90
37446;DHT22;23307;51.136;14.942;2022-12-18T13:00:18;-0.40;99.90
37446;DHT22;23307;51.136;14.942;2022-12-18T13:08:52;-0.80;99.90
37446;DHT22;23307;51.136;14.942;2022-12-18T13:10:49;-0.80;99.90
37446;DHT22;23307;51.136;14.942;2022-12-18T13:16:19;-1.00;99.90
37446;DHT22;23307;51.136;14.942;2022-12-18T13:18:53;-1.10;99.90
37446;DHT22;23307;51.136;14.942;2022-12-18T13:23:50;-1.20;99.90
37446;DHT22;23307;51.136;14.942;2022-12-18T13:31:57;-1.40;99.90
37446;DHT22;23307;51.136;14.942;2022-12-18T13:34:28;-1.40;99.90
37446;DHT22;23307;51.136;14.942;2022-12-18T13:36:57;-1.40;99.90
37446;DHT22;23307;51.136;14.942;2022-12-18T13:39:41;-1.50;99.90
37446;DHT22;23307;51.136;14.942;2022-12-18T13:44:37;-1.50;99.90
37446;DHT22;23307;51.136;14.942;2022-12-18T13:47:05;-1.60;99.90
37446;DHT22;23307;51.136;14.942;2022-12-18T13:49:49;-1.60;99.90
37446;DHT22;23307;51.136;14.942;2022-12-18T13:52:33;-1.70;99.90
37446;DHT22;23307;51.136;14.942;2022-12-18T13:55:02;-1.70;99.90
37446;DHT22;23307;51.136;14.942;2022-12-18T13:57:35;-1.80;99.90
37446;DHT22;23307;51.136;14.942;2022-12-18T14:00:24;-1.80;99.90
37446;DHT22;23307;51.136;14.942;2022-12-18T14:02:51;-1.90;99.90
37446;DHT22;23307;51.136;14.942;2022-12-18T14:05:33;-2.00;99.90
37446;DHT22;23307;51.136;14.942;2022-12-18T14:08:03;-2.00;99.90
37446;DHT22;23307;51.136;14.942;2022-12-18T14:10:30;-2.10;99.90
37446;DHT22;23307;51.136;14.942;2022-12-18T14:12:56;-2.10;99.90
37446;DHT22;23307;51.136;14.942;2022-12-18T14:18:02;-2.20;99.90
37446;DHT22;23307;51.136;14.942;2022-12-18T14:20:31;-2.20;99.90
37446;DHT22;23307;51.136;14.942;2022-12-18T14:22:58;-2.20;99.90
37446;DHT22;23307;51.136;14.942;2022-12-18T14:25:27;-2.30;99.90
37446;DHT22;23307;51.136;14.942;2022-12-18T14:28:14;-2.30;99.90
37446;DHT22;23307;51.136;14.942;2022-12-18T14:30:42;-2.30;99.90
37446;DHT22;23307;51.136;14.942;2022-12-18T14:35:42;-2.30;99.90
37446;DHT22;23307;51.136;14.942;2022-12-18T14:38:21;-2.40;99.90
37446;DHT22;23307;51.136;14.942;2022-12-18T14:40:51;-2.40;99.90
37446;DHT22;23307;51.136;14.942;2022-12-18T14:43:20;-2.50;99.90
37446;DHT22;23307;51.136;14.942;2022-12-18T14:45:46;-2.60;99.90
37446;DHT22;23307;51.136;14.942;2022-12-18T14:48:30;-2.60;99.90
37446;DHT22;23307;51.136;14.942;2022-12-18T14:51:01;-2.70;99.90
37446;DHT22;23307;51.136;14.942;2022-12-18T14:53:33;-2.70;99.90
37446;DHT22;23307;51.136;14.942;2022-12-18T14:56:00;-2.70;99.90
37446;DHT22;23307;51.136;14.942;2022-12-18T14:58:26;-2.80;99.90
37446;DHT22;23307;51.136;14.942;2022-12-18T15:00:52;-2.80;99.90
37446;DHT22;23307;51.136;14.942;2022-12-18T15:03:19;-2.90;99.90
37446;DHT22;23307;51.136;14.942;2022-12-18T15:05:46;-2.80;99.90
37446;DHT22;23307;51.136;14.942;2022-12-18T15:08:34;-2.90;99.90
37446;DHT22;23307;51.136;14.942;2022-12-18T15:11:01;-2.90;99.90
37446;DHT22;23307;51.136;14.942;2022-12-18T15:13:26;-2.90;99.90
37446;DHT22;23307;51.136;14.942;2022-12-18T15:15:58;-2.90;99.90
37446;DHT22;23307;51.136;14.942;2022-12-18T15:18:33;-3.10;99.90
37446;DHT22;23307;51.136;14.942;2022-12-18T15:21:08;-3.10;99.90
37446;DHT22;23307;51.136;14.942;2022-12-18T15:23:46;-3.10;99.90
37446;DHT22;23307;51.136;14.942;2022-12-18T15:26:14;-3.20;99.90
37446;DHT22;23307;51.136;14.942;2022-12-18T15:28:44;-3.30;99.90
37446;DHT22;23307;51.136;14.942;2022-12-18T15:36:17;-3.20;99.90
37446;DHT22;23307;51.136;14.942;2022-12-18T15:38:49;-3.20;99.90
37446;DHT22;23307;51.136;14.942;2022-12-18T15:41:17;-3.30;99.90
37446;DHT22;23307;51.136;14.942;2022-12-18T15:43:44;-3.30;99.90
37446;DHT22;23307;51.136;14.942;2022-12-18T15:46:12;-3.30;99.90
37446;DHT22;23307;51.136;14.942;2022-12-18T15:48:43;-3.30;99.90
37446;DHT22;23307;51.136;14.942;2022-12-18T15:51:31;-3.30;99.90
37446;DHT22;23307;51.136;14.942;2022-12-18T15:53:59;-3.40;99.90
37446;DHT22;23307;51.136;14.942;2022-12-18T15:56:26;-3.30;99.90
37446;DHT22;23307;51.136;14.942;2022-12-18T15:59:15;-3.40;99.90
37446;DHT22;23307;51.136;14.942;2022-12-18T16:01:44;-3.50;99.90
37446;DHT22;23307;51.136;14.942;2022-12-18T16:04:15;-3.50;99.90
37446;DHT22;23307;51.136;14.942;2022-12-18T16:06:41;-3.50;99.90
37446;DHT22;23307;51.136;14.942;2022-12-18T16:09:07;-3.50;99.90
37446;DHT22;23307;51.136;14.942;2022-12-18T16:11:35;-3.50;99.90
37446;DHT22;23307;51.136;14.942;2022-12-18T16:14:06;-3.50;99.90
37446;DHT22;23307;51.136;14.942;2022-12-18T16:16:31;-3.60;99.90
37446;DHT22;23307;51.136;14.942;2022-12-18T16:18:57;-3.60;99.90
37446;DHT22;23307;51.136;14.942;2022-12-18T16:21:22;-3.60;99.90
37446;DHT22;23307;51.136;14.942;2022-12-18T16:23:48;-3.70;99.90
37446;DHT22;23307;51.136;14.942;2022-12-18T16:26:13;-3.80;99.90
37446;DHT22;23307;51.136;14.942;2022-12-18T16:28:39;-3.80;99.90
37446;DHT22;23307;51.136;14.942;2022-12-18T16:31:04;-3.80;99.90
37446;DHT22;23307;51.136;14.942;2022-12-18T16:33:30;-3.80;99.90
37446;DHT22;23307;51.136;14.942;2022-12-18T16:35:56;-3.80;99.90
37446;DHT22;23307;51.136;14.942;2022-12-18T16:38:21;-3.80;99.90
37446;DHT22;23307;51.136;14.942;2022-12-18T16:40:47;-3.90;99.90
37446;DHT22;23307;51.136;14.942;2022-12-18T16:43:31;-3.90;99.90
37446;DHT22;23307;51.136;14.942;2022-12-18T16:45:58;-3.90;99.90
37446;DHT22;23307;51.136;14.942;2022-12-18T16:48:24;-3.90;99.90
37446;DHT22;23307;51.136;14.942;2022-12-18T16:50:49;-3.90;99.90
37446;DHT22;23307;51.136;14.942;2022-12-18T16:53:15;-3.90;99.90
37446;DHT22;23307;51.136;14.942;2022-12-18T16:55:40;-3.90;99.90
37446;DHT22;23307;51.136;14.942;2022-12-18T16:58:06;-3.90;99.90
37446;DHT22;23307;51.136;14.942;2022-12-18T17:00:32;-3.80;99.90
37446;DHT22;23307;51.136;14.942;2022-12-18T17:02:57;-3.80;99.90
37446;DHT22;23307;51.136;14.942;2022-12-18T17:05:23;-3.90;99.90
37446;DHT22;23307;51.136;14.942;2022-12-18T17:07:48;-3.80;99.90
37446;DHT22;23307;51.136;14.942;2022-12-18T17:10:14;-3.80;99.90
37446;DHT22;23307;51.136;14.942;2022-12-18T17:12:39;-3.80;99.90
37446;DHT22;23307;51.136;14.942;2022-12-18T17:15:05;-3.90;99.90